Nearby METAR Reports

 

KDVT - Phoenix/Deer Vly, Arizona, USA
Distance from station: SW 14mi, 22km
Updated: 2021-07-29 23:53
NOT Current
Clear
Clear
 Wind from E
Wind: E 6 mph , 9 km/h
Temperature: 88°F , 31°C
Heat Index: 89°F , 32°C
Dew Point: 63°F , 17°C
Humidity: 43%
Barometer: 29.92 inHg , 1013.2 hPa
Clouds: Clear
Visibility: 10 miles , 16 km
2021/07/30 06:53 KDVT 300653Z AUTO 08005KT 10SM CLR 31/17 A2992 RMK AO2 SLP103 T03110172 403940300
KSDL - Scottsdale, Arizona, USA
Distance from station: S 15mi, 23km
Updated: 2021-07-29 23:53
NOT Current
Clear
Clear
 Wind from SSE
Wind: SSE 3 mph , 6 km/h
Temperature: 88°F , 31°C
Heat Index: 88°F , 31°C
Dew Point: 61°F , 16°C
Humidity: 40%
Barometer: 29.93 inHg , 1013.5 hPa
Clouds: Clear
Visibility: 10 miles , 16 km
2021/07/30 06:53 KSDL 300653Z AUTO 16003KT 10SM CLR 31/16 A2993 RMK AO2 SLP107 T03110156 404060300
KFFZ - Mesa/Falcon Fld, Arizona, USA
Distance from station: SSE 27mi, 44km
Updated: 2021-07-29 23:54
NOT Current
Few Clouds
Few Clouds
 Wind from calm
Wind: Calm
Temperature: 86°F , 30°C
Heat Index: 87°F , 31°C
Dew Point: 63°F , 17°C
Humidity: 46%
Barometer: 29.94 inHg , 1013.9 hPa
Clouds: Few Clouds
Visibility: 10 miles , 16 km
Cloud details: Few Clouds 10000 ft
2021/07/30 06:54 KFFZ 300654Z AUTO 00000KT 10SM FEW100 30/17 A2994 RMK AO2 SLP112 T03000167 404060294 TSNO
 
KPHX - Phoenix/Sky Hrbr, Arizona, USA
Distance from station: SSW 28mi, 45km
Updated: 2021-07-29 23:51
NOT Current
Overcast
Overcast
 Wind from E
Wind: E 14 mph , 22 km/h
Temperature: 90°F , 32°C
Dew Point: 61°F , 16°C
Humidity: 38%
Barometer: 29.89 inHg , 1012.2 hPa
Clouds: Overcast
Visibility: 10 miles , 16 km
Cloud details: Few Clouds 14000 ft
Mostly cloudy 16000 ft
Overcast 19000 ft
2021/07/30 06:51 KPHX 300651Z 09012KT 10SM FEW140 BKN160 OVC190 32/16 A2989 RMK AO2 SLP100 T03170161 404110311
KLUF - Luke Afb/Glendal, Arizona, USA
Distance from station: SW 34mi, 55km
Updated: 2021-07-29 23:58
NOT Current
Mostly cloudy
Mostly cloudy
 Wind from ENE
Wind: ENE 6 mph , 9 km/h
Temperature: 91°F , 33°C
Dew Point: 63°F , 17°C
Humidity: 38%
Barometer: 29.88 inHg , 1011.9 hPa
Clouds: Mostly cloudy
Visibility: 10 miles , 16 km
Cloud details: Few Clouds 14000 ft
Mostly cloudy 17000 ft
Mostly cloudy 19000 ft
2021/07/30 06:58 KLUF 300658Z AUTO 07005KT 10SM FEW140 BKN170 BKN190 33/17 A2988 RMK AO2 SLP102 T03260172 404070290 $
KGYR - Goodyear Municip, Arizona, USA
Distance from station: SW 39mi, 63km
Updated: 2021-07-29 20:47
NOT Current
Mostly cloudy
Mostly cloudy
 Wind from calm
Wind: Calm
Temperature: 93°F , 34°C
Heat Index: 96°F , 36°C
Dew Point: 66°F , 19°C
Humidity: 41%
Barometer: 29.86 inHg , 1011.2 hPa
Clouds: Mostly cloudy
Visibility: 10 miles , 16 km
Cloud details: Partly cloudy 12000 ft
Partly cloudy 15000 ft
Mostly cloudy 19000 ft
2021/07/30 03:47 KGYR 300347Z 00000KT 10SM SCT120 SCT150 BKN190 34/19 A2986 RMK LAST
 
KIWA - Chandler/Mesa, Arizona, USA
Distance from station: SSE 39mi, 63km
Updated: 2021-07-30 00:15

 Wind from SE
Wind: SE 15 mph , 24 km/h
Temperature: 88°F , 31°C
Heat Index: 90°F , 32°C
Dew Point: 64°F , 18°C
Humidity: 46%
Barometer: 29.96 inHg , 1014.6 hPa
Visibility: 10 miles , 16 km
2021/07/30 07:15 KIWA 300715Z 14013KT 10SM 31/18 A2996 RMK AO2 T03100176
KPAN - Payson, Arizona, USA
Distance from station: NE 44mi, 70km
Updated: 2021-07-30 00:15
Clear
Clear
 Wind from calm
Wind: Calm
Temperature: 63°F , 17°C
Dew Point: 59°F , 15°C
Humidity: 88%
Barometer: 30.23 inHg , 1023.7 hPa
Clouds: Clear
Visibility: 10 miles , 16 km
2021/07/30 07:15 KPAN 300715Z AUTO 00000KT 10SM CLR 17/15 A3023 RMK AO2
KBXK - Buckeye, Arizona, USA
Distance from station: WSW 53mi, 86km
Updated: 2021-07-30 00:15

 Wind from E
Wind: E 12 mph , 19 km/h
Temperature: 90°F , 32°C
Heat Index: 92°F , 33°C
Dew Point: 64°F , 18°C
Humidity: 43%
Barometer: 29.88 inHg , 1011.9 hPa
Visibility: 10 miles , 16 km
2021/07/30 07:15 KBXK 300715Z AUTO 08010KT 10SM 32/18 A2988 RMK A01
 
KA39 - Maricopa Ak-Chin, Arizona, USA
Distance from station: S 58mi, 94km
Updated: 2021-07-30 00:10
Clear
Clear
 Wind from ESE
Wind: ESE 15 mph , 24 km/h
Temperature: 88°F , 31°C
Heat Index: 90°F , 32°C
Dew Point: 64°F , 18°C
Humidity: 46%
Barometer: 29.96 inHg , 1014.6 hPa
Clouds: Clear
Visibility: 10 miles , 16 km
2021/07/30 07:10 KA39 300710Z AUTO 12013KT 10SM CLR 31/18 A2996 RMK AO2
KPRC - Prescott, Arizona, USA
Distance from station: NNW 64mi, 103km
Updated: 2021-07-29 23:53
NOT Current
Clear
Clear
 Wind from S
Wind: S 6 mph , 9 km/h
Temperature: 64°F , 18°C
Dew Point: 59°F , 15°C
Humidity: 83%
Barometer: 30.20 inHg , 1022.7 hPa
Clouds: Clear
Visibility: 10 miles , 16 km
2021/07/30 06:53 KPRC 300653Z AUTO 18005KT 10SM CLR 18/15 A3020 RMK AO2 SLP141 T01830150 402890178
KSEZ - Sedona, Arizona, USA
Distance from station: N 71mi, 114km
Updated: 2021-07-30 00:15
Partly cloudy
Partly cloudy
 Wind from NNE
Wind: NNE 12 mph , 19 km/h
Temperature: 70°F , 21°C
Dew Point: 55°F , 13°C
Humidity: 60%
Barometer: 30.19 inHg , 1022.4 hPa
Clouds: Partly cloudy
Visibility: 10 miles , 16 km
Cloud details: Partly cloudy 12000 ft
2021/07/30 07:15 KSEZ 300715Z AUTO 03010KT 10SM SCT120 21/13 A3019 RMK AO2
 
KFLG - Flagstaff, Arizona, USA
Distance from station: N 91mi, 147km
Updated: 2021-07-29 23:57
NOT Current
Clear
Clear
 Wind from calm
Wind: Calm
Temperature: 55°F , 13°C
Dew Point: 55°F , 13°C
Humidity: 100%
Barometer: 30.35 inHg , 1027.8 hPa
Clouds: Clear
Visibility: 10 miles , 16 km
2021/07/30 06:57 KFLG 300657Z AUTO 00000KT 10SM CLR 13/13 A3035 RMK AO2 SLP175 T01280128 402610128 $